Portada
METAR-TAF:

METAR-TAF

Aeroports :

Nizhnevartovsk, Rússia

latitud: 60-56N, longitud: 076-29E, altitud: 54 m

Observació

L'informe es va fer fa 16 minuts, a les 16:30 UTC
Vent 2 kt del Est
Temperatura -33°C
Humitat 74%
Pressió 1025 hPa
Visibilitat 10 km o més
Escasses núvols a una alçada de 300 ft

METAR: USNN 201630Z 08001MPS 9999 FEW003 M33/M36 Q1025 R21/410165 NOSIG RMK QFE763

Hora: 21:46 (16:46 UTC)

Pronòstic

L'informe es va fer fa 2 hores i 46 minuts, a les 14:00 UTC
Pronòstic vàlid del 20 a les 15 UTC al 21 a les 15 UTC
Vent 6 kt del Sud-Est amb ràfegues de 16 kt
Visibilitat 10 km o més
sense núvols per sota de 1500 mi sense presència de cumulonimbus.
Temporalment
l' 20 a les 15 UTC al 20 a les 18 UTC
Escasses núvols a una alçada de 200 ft

TAF: USNN 201400Z 2015/2115 13003G08MPS CAVOK TEMPO 2015/2018 FEW002

Observacions i pronòstics meteorològics de més de 4000 aeroports (METAR i TAF).

Les estacions disponibles són els punts grocs i vermells al mapa.

Posi el ratolí al punt desitjat per veure el nom de l'estació.

Feu clic per veure les observacions i els pronòstics meteorològics.

Per canviar el mapa: feu clic els botons verds amb una creu de color negre per apropar; al botó verd amb un guió per allunyar la imatge; o en les fletxes verdes per a mapes adjacents.


METAR-TAF: